Highworth, United Kingdom
Current Conditions -  °F | °C
As of 7:08 AM on Monday 22 Dec 2014 (Local Time) from EGVA Reporting Station
Overcast Overcast  
Wind Chill: 11°   Ceiling: 1600
Heat Index: 11°   Visibility: 6mi
Dew Point: 10°   Wind: 24mph
Humidity: 94%   Direction: 250°WSW
Pressure: 30.04"   Gusts: 33mph
Location:  51.63°N, 1.71°W
Report Text: EGVA 220708Z AUTO 25021G29KT 9999 FEW010 OVC016 11/10 A3004 RMK AO2
Loading
Personal Weather Stations






























Interactive Weather Map New forecast layout! Learn more

10-Day Weather Forecast

Advertisements
Track Severe Weather on mobile